21.6°F
Current conditions from King Hill
Updated every 5 minutes
 
  Sunday December 21, 2014

Station Historical Data
Daily Summary for August 21, 2012 Units:  Both    English   Metric
« Previous Day
Next Day »
Daily Weekly Monthly Yearly Custom
  High: Low: Average:
Temperature: 76.6 °F /  24.8 °C 52.5 °F /  11.4 °C 63.7 °F /  17.6 °C
Dew Point: 61.5 °F /  16.4 °C 48.5 °F /  9.2 °C 53.8 °F /  12.1 °C
Humidity: 96% 39% 74%
Wind Speed: 7.0mph /  11.3km/h - 2.7mph /  4.3km/h
Wind Gust: 13.0mph /  20.9km/h - -
Wind- - West
Pressure: 30.03 in /  1016.8 hPa 29.86 in /  1011.1 hPa -
Precipitation: 0.01 in /  0.3 mm    
Historical Graphs
 
 
Tabular Data for August 21, 2012
Time Temperature Dew Point Pressure Wind Wind Speed Wind Gust Humidity Daily Rainfall
00:04 57.5 °F /  14.2 °C 54.6 °F /  12.6 °C 29.86in /  1011.1hPa Calm     90% 0.00in /  0mm
00:09 57.5 °F /  14.2 °C 54.6 °F /  12.6 °C 29.86in /  1011.1hPa Calm     90% 0.00in /  0mm
00:14 57.6 °F /  14.2 °C 54.7 °F /  12.6 °C 29.87in /  1011.4hPa Calm     90% 0.00in /  0mm
00:19 57.6 °F /  14.2 °C 54.7 °F /  12.6 °C 29.87in /  1011.4hPa Calm     90% 0.00in /  0mm
00:24 57.7 °F /  14.3 °C 54.8 °F /  12.7 °C 29.87in /  1011.4hPa Calm     90% 0.00in /  0mm
00:29 57.7 °F /  14.3 °C 54.8 °F /  12.7 °C 29.86in /  1011.1hPa Calm     90% 0.00in /  0mm
00:34 57.6 °F /  14.2 °C 54.7 °F /  12.6 °C 29.87in /  1011.4hPa Calm     90% 0.00in /  0mm
00:40 57.6 °F /  14.2 °C 54.7 °F /  12.6 °C 29.87in /  1011.4hPa Calm     90% 0.00in /  0mm
00:49 57.6 °F /  14.2 °C 55.0 °F /  12.8 °C 29.87in /  1011.4hPa Calm     91% 0.00in /  0mm
00:59 57.6 °F /  14.2 °C 55.0 °F /  12.8 °C 29.87in /  1011.4hPa Calm     91% 0.00in /  0mm
01:04 57.7 °F /  14.3 °C 55.1 °F /  12.8 °C 29.87in /  1011.4hPa Calm     91% 0.00in /  0mm
01:09 57.9 °F /  14.4 °C 55.6 °F /  13.1 °C 29.87in /  1011.4hPa Calm     92% 0.00in /  0mm
01:14 58.0 °F /  14.4 °C 55.7 °F /  13.2 °C 29.87in /  1011.4hPa Calm   1.0mph /  1.6km/h 92% 0.00in /  0mm
01:19 58.2 °F /  14.6 °C 55.9 °F /  13.3 °C 29.87in /  1011.4hPa Calm   1.0mph /  1.6km/h 92% 0.00in /  0mm
01:24 58.3 °F /  14.6 °C 56.0 °F /  13.3 °C 29.88in /  1011.7hPa Calm     92% 0.00in /  0mm
01:29 58.3 °F /  14.6 °C 56.0 °F /  13.3 °C 29.88in /  1011.7hPa Calm     92% 0.00in /  0mm
01:34 58.4 °F /  14.7 °C 55.8 °F /  13.2 °C 29.88in /  1011.7hPa Calm     91% 0.00in /  0mm
01:39 58.5 °F /  14.7 °C 55.9 °F /  13.3 °C 29.87in /  1011.4hPa Calm     91% 0.00in /  0mm
01:44 58.6 °F /  14.8 °C 56.0 °F /  13.3 °C 29.87in /  1011.4hPa Calm     91% 0.00in /  0mm
01:49 58.5 °F /  14.7 °C 55.9 °F /  13.3 °C 29.87in /  1011.4hPa Calm     91% 0.00in /  0mm
01:54 58.5 °F /  14.7 °C 55.6 °F /  13.1 °C 29.87in /  1011.4hPa Calm     90% 0.00in /  0mm
01:59 58.5 °F /  14.7 °C 55.6 °F /  13.1 °C 29.87in /  1011.4hPa Calm     90% 0.00in /  0mm
02:04 58.4 °F /  14.7 °C 55.2 °F /  12.9 °C 29.87in /  1011.4hPa Calm     89% 0.00in /  0mm
02:09 58.3 °F /  14.6 °C 55.1 °F /  12.8 °C 29.87in /  1011.4hPa Calm     89% 0.00in /  0mm
02:14 58.3 °F /  14.6 °C 55.1 °F /  12.8 °C 29.87in /  1011.4hPa Calm     89% 0.00in /  0mm
02:19 58.3 °F /  14.6 °C 55.1 °F /  12.8 °C 29.88in /  1011.7hPa Calm     89% 0.00in /  0mm
02:24 58.3 °F /  14.6 °C 55.1 °F /  12.8 °C 29.88in /  1011.7hPa Calm     89% 0.00in /  0mm
02:29 58.2 °F /  14.6 °C 55.0 °F /  12.8 °C 29.88in /  1011.7hPa Calm     89% 0.00in /  0mm
02:34 58.1 °F /  14.5 °C 54.9 °F /  12.7 °C 29.88in /  1011.7hPa Calm     89% 0.00in /  0mm
02:39 57.9 °F /  14.4 °C 54.7 °F /  12.6 °C 29.87in /  1011.4hPa Calm     89% 0.00in /  0mm
02:44 57.7 °F /  14.3 °C 54.5 °F /  12.5 °C 29.87in /  1011.4hPa Calm     89% 0.00in /  0mm
02:49 57.3 °F /  14.1 °C 54.1 °F /  12.3 °C 29.88in /  1011.7hPa Calm     89% 0.00in /  0mm
02:54 56.9 °F /  13.8 °C 53.7 °F /  12.1 °C 29.88in /  1011.7hPa Calm     89% 0.00in /  0mm
02:59 56.8 °F /  13.8 °C 53.6 °F /  12 °C 29.89in /  1012.1hPa Calm     89% 0.00in /  0mm
03:04 56.8 °F /  13.8 °C 53.6 °F /  12 °C 29.88in /  1011.7hPa Calm     89% 0.00in /  0mm
03:09 56.6 °F /  13.7 °C 53.7 °F /  12.1 °C 29.88in /  1011.7hPa Calm     90% 0.00in /  0mm
03:14 56.7 °F /  13.7 °C 53.8 °F /  12.1 °C 29.89in /  1012.1hPa Calm     90% 0.00in /  0mm
03:19 56.7 °F /  13.7 °C 53.8 °F /  12.1 °C 29.89in /  1012.1hPa Calm     90% 0.00in /  0mm
03:24 56.6 °F /  13.7 °C 53.7 °F /  12.1 °C 29.89in /  1012.1hPa Calm     90% 0.00in /  0mm
03:29 56.6 °F /  13.7 °C 54.0 °F /  12.2 °C 29.89in /  1012.1hPa Calm     91% 0.00in /  0mm
03:34 56.6 °F /  13.7 °C 54.0 °F /  12.2 °C 29.89in /  1012.1hPa Calm     91% 0.00in /  0mm
03:39 56.6 °F /  13.7 °C 54.0 °F /  12.2 °C 29.89in /  1012.1hPa Calm     91% 0.00in /  0mm
03:44 56.6 °F /  13.7 °C 54.0 °F /  12.2 °C 29.89in /  1012.1hPa Calm     91% 0.00in /  0mm
03:49 56.8 °F /  13.8 °C 54.5 °F /  12.5 °C 29.89in /  1012.1hPa Calm     92% 0.00in /  0mm
03:54 57.0 °F /  13.9 °C 54.7 °F /  12.6 °C 29.89in /  1012.1hPa Calm     92% 0.00in /  0mm
03:59 57.1 °F /  13.9 °C 54.8 °F /  12.7 °C 29.89in /  1012.1hPa Calm     92% 0.00in /  0mm
04:04 57.1 °F /  13.9 °C 54.8 °F /  12.7 °C 29.89in /  1012.1hPa Calm     92% 0.00in /  0mm
04:09 57.1 °F /  13.9 °C 55.1 °F /  12.8 °C 29.89in /  1012.1hPa Calm     93% 0.00in /  0mm
04:14 57.2 °F /  14 °C 55.2 °F /  12.9 °C 29.89in /  1012.1hPa Calm     93% 0.00in /  0mm
04:19 57.0 °F /  13.9 °C 55.0 °F /  12.8 °C 29.89in /  1012.1hPa Calm     93% 0.00in /  0mm
04:24 56.4 °F /  13.6 °C 54.4 °F /  12.4 °C 29.89in /  1012.1hPa Calm     93% 0.00in /  0mm
04:29 56.1 °F /  13.4 °C 54.1 °F /  12.3 °C 29.89in /  1012.1hPa Calm     93% 0.00in /  0mm
04:34 55.6 °F /  13.1 °C 53.3 °F /  11.8 °C 29.89in /  1012.1hPa Calm     92% 0.00in /  0mm
04:39 55.4 °F /  13 °C 53.4 °F /  11.9 °C 29.90in /  1012.4hPa Calm     93% 0.00in /  0mm
04:44 55.2 °F /  12.9 °C 53.2 °F /  11.8 °C 29.90in /  1012.4hPa Calm     93% 0.00in /  0mm
04:49 55.6 °F /  13.1 °C 53.6 °F /  12 °C 29.90in /  1012.4hPa SSW 1.0mph /  1.6km/h 4.0mph /  6.4km/h 93% 0.00in /  0mm
04:54 55.9 °F /  13.3 °C 54.2 °F /  12.3 °C 29.90in /  1012.4hPa Calm   4.0mph /  6.4km/h 94% 0.00in /  0mm
04:59 56.2 °F /  13.4 °C 54.5 °F /  12.5 °C 29.90in /  1012.4hPa Calm   2.0mph /  3.2km/h 94% 0.00in /  0mm
05:04 56.3 °F /  13.5 °C 54.6 °F /  12.6 °C 29.90in /  1012.4hPa Calm     94% 0.00in /  0mm
05:09 56.2 °F /  13.4 °C 54.5 °F /  12.5 °C 29.90in /  1012.4hPa Calm     94% 0.00in /  0mm
05:14 56.0 °F /  13.3 °C 54.3 °F /  12.4 °C 29.90in /  1012.4hPa Calm     94% 0.00in /  0mm
05:19 55.8 °F /  13.2 °C 54.1 °F /  12.3 °C 29.90in /  1012.4hPa Calm     94% 0.00in /  0mm
05:24 55.7 °F /  13.2 °C 54.0 °F /  12.2 °C 29.90in /  1012.4hPa Calm     94% 0.00in /  0mm
05:29 55.6 °F /  13.1 °C 53.9 °F /  12.2 °C 29.90in /  1012.4hPa Calm     94% 0.00in /  0mm
05:34 55.6 °F /  13.1 °C 53.9 °F /  12.2 °C 29.90in /  1012.4hPa SSW 1.0mph /  1.6km/h 3.0mph /  4.8km/h 94% 0.00in /  0mm
05:39 55.6 °F /  13.1 °C 53.9 °F /  12.2 °C 29.90in /  1012.4hPa Calm   3.0mph /  4.8km/h 94% 0.00in /  0mm
05:44 55.5 °F /  13.1 °C 53.8 °F /  12.1 °C 29.91in /  1012.8hPa Calm   1.0mph /  1.6km/h 94% 0.00in /  0mm
05:49 55.4 °F /  13 °C 53.7 °F /  12.1 °C 29.91in /  1012.8hPa Calm   1.0mph /  1.6km/h 94% 0.00in /  0mm
05:54 55.2 °F /  12.9 °C 53.5 °F /  11.9 °C 29.91in /  1012.8hPa Calm     94% 0.00in /  0mm
05:59 55.0 °F /  12.8 °C 53.3 °F /  11.8 °C 29.91in /  1012.8hPa Calm     94% 0.00in /  0mm
06:04 54.9 °F /  12.7 °C 53.5 °F /  11.9 °C 29.91in /  1012.8hPa Calm     95% 0.00in /  0mm
06:09 54.7 °F /  12.6 °C 53.0 °F /  11.7 °C 29.91in /  1012.8hPa Calm     94% 0.00in /  0mm
06:14 54.2 °F /  12.3 °C 52.5 °F /  11.4 °C 29.91in /  1012.8hPa Calm     94% 0.00in /  0mm
06:19 53.8 °F /  12.1 °C 52.1 °F /  11.2 °C 29.91in /  1012.8hPa Calm     94% 0.00in /  0mm
06:24 53.7 °F /  12.1 °C 52.0 °F /  11.1 °C 29.92in /  1013.1hPa Calm     94% 0.00in /  0mm
06:29 53.7 °F /  12.1 °C 52.0 °F /  11.1 °C 29.91in /  1012.8hPa Calm     94% 0.00in /  0mm
06:34 53.8 °F /  12.1 °C 52.4 °F /  11.3 °C 29.92in /  1013.1hPa Calm     95% 0.00in /  0mm
06:39 53.8 °F /  12.1 °C 52.4 °F /  11.3 °C 29.92in /  1013.1hPa Calm     95% 0.00in /  0mm
06:44 54.2 °F /  12.3 °C 52.8 °F /  11.6 °C 29.92in /  1013.1hPa Calm   2.0mph /  3.2km/h 95% 0.00in /  0mm
06:49 54.5 °F /  12.5 °C 53.1 °F /  11.7 °C 29.92in /  1013.1hPa Calm   2.0mph /  3.2km/h 95% 0.00in /  0mm
06:54 54.7 °F /  12.6 °C 53.3 °F /  11.8 °C 29.92in /  1013.1hPa Calm   1.0mph /  1.6km/h 95% 0.00in /  0mm
06:59 54.8 °F /  12.7 °C 53.4 °F /  11.9 °C 29.92in /  1013.1hPa Calm     95% 0.00in /  0mm
07:04 54.9 °F /  12.7 °C 53.5 °F /  11.9 °C 29.92in /  1013.1hPa Calm     95% 0.00in /  0mm
07:09 55.3 °F /  12.9 °C 53.9 °F /  12.2 °C 29.92in /  1013.1hPa Calm     95% 0.00in /  0mm
07:14 55.9 °F /  13.3 °C 54.5 °F /  12.5 °C 29.92in /  1013.1hPa SSW 1.0mph /  1.6km/h 2.0mph /  3.2km/h 95% 0.00in /  0mm
07:19 56.2 °F /  13.4 °C 55.1 °F /  12.8 °C 29.93in /  1013.4hPa Calm   2.0mph /  3.2km/h 96% 0.00in /  0mm
07:24 56.6 °F /  13.7 °C 55.5 °F /  13.1 °C 29.93in /  1013.4hPa Calm   2.0mph /  3.2km/h 96% 0.00in /  0mm
07:29 57.0 °F /  13.9 °C 55.9 °F /  13.3 °C 29.93in /  1013.4hPa SSW 1.0mph /  1.6km/h 2.0mph /  3.2km/h 96% 0.00in /  0mm
07:34 57.7 °F /  14.3 °C 56.6 °F /  13.7 °C 29.93in /  1013.4hPa Calm   2.0mph /  3.2km/h 96% 0.00in /  0mm
07:39 58.4 °F /  14.7 °C 57.3 °F /  14.1 °C 29.93in /  1013.4hPa Calm   1.0mph /  1.6km/h 96% 0.00in /  0mm
07:44 59.1 °F /  15.1 °C 58.0 °F /  14.4 °C 29.93in /  1013.4hPa Calm   1.0mph /  1.6km/h 96% 0.00in /  0mm
07:49 60.0 °F /  15.6 °C 58.9 °F /  14.9 °C 29.93in /  1013.4hPa Calm     96% 0.01in /  0.3mm
07:54 60.1 °F /  15.6 °C 59.0 °F /  15 °C 29.93in /  1013.4hPa Calm   2.0mph /  3.2km/h 96% 0.01in /  0.3mm
07:59 60.0 °F /  15.6 °C 58.9 °F /  14.9 °C 29.94in /  1013.8hPa Calm   2.0mph /  3.2km/h 96% 0.01in /  0.3mm
08:04 60.1 °F /  15.6 °C 59.0 °F /  15 °C 29.94in /  1013.8hPa Calm     96% 0.01in /  0.3mm
08:09 60.3 °F /  15.7 °C 59.2 °F /  15.1 °C 29.94in /  1013.8hPa Calm     96% 0.01in /  0.3mm
08:14 60.5 °F /  15.8 °C 59.4 °F /  15.2 °C 29.94in /  1013.8hPa Calm     96% 0.01in /  0.3mm
08:19 61.2 °F /  16.2 °C 60.1 °F /  15.6 °C 29.94in /  1013.8hPa Calm   2.0mph /  3.2km/h 96% 0.01in /  0.3mm
08:24 61.8 °F /  16.6 °C 60.6 °F /  15.9 °C 29.94in /  1013.8hPa Calm   4.0mph /  6.4km/h 96% 0.01in /  0.3mm
08:29 62.6 °F /  17 °C 61.1 °F /  16.2 °C 29.94in /  1013.8hPa Calm   4.0mph /  6.4km/h 95% 0.01in /  0.3mm
08:34 62.7 °F /  17.1 °C 60.6 °F /  15.9 °C 29.94in /  1013.8hPa SW 4.0mph /  6.4km/h 6.0mph /  9.7km/h 93% 0.01in /  0.3mm
08:39 63.2 °F /  17.3 °C 60.8 °F /  16 °C 29.94in /  1013.8hPa Calm   6.0mph /  9.7km/h 92% 0.01in /  0.3mm
08:44 64.1 °F /  17.8 °C 61.4 °F /  16.3 °C 29.94in /  1013.8hPa Calm   5.0mph /  8km/h 91% 0.01in /  0.3mm
08:49 64.8 °F /  18.2 °C 61.5 °F /  16.4 °C 29.94in /  1013.8hPa SW 1.0mph /  1.6km/h 3.0mph /  4.8km/h 89% 0.01in /  0.3mm
08:54 65.4 °F /  18.6 °C 61.1 °F /  16.2 °C 29.94in /  1013.8hPa SSW 1.0mph /  1.6km/h 5.0mph /  8km/h 86% 0.01in /  0.3mm
08:59 66.3 °F /  19.1 °C 61.0 °F /  16.1 °C 29.94in /  1013.8hPa WNW 3.0mph /  4.8km/h 8.0mph /  12.9km/h 83% 0.01in /  0.3mm
09:04 66.2 °F /  19 °C 59.5 °F /  15.3 °C 29.94in /  1013.8hPa Calm   8.0mph /  12.9km/h 79% 0.01in /  0.3mm
09:09 65.9 °F /  18.8 °C 59.6 °F /  15.3 °C 29.95in /  1014.1hPa WNW 3.0mph /  4.8km/h 8.0mph /  12.9km/h 80% 0.01in /  0.3mm
09:14 66.0 °F /  18.9 °C 59.7 °F /  15.4 °C 29.95in /  1014.1hPa WNW 2.0mph /  3.2km/h 6.0mph /  9.7km/h 80% 0.01in /  0.3mm
09:19 65.8 °F /  18.8 °C 59.5 °F /  15.3 °C 29.95in /  1014.1hPa SSW 2.0mph /  3.2km/h 6.0mph /  9.7km/h 80% 0.01in /  0.3mm
09:24 66.4 °F /  19.1 °C 59.3 °F /  15.2 °C 29.94in /  1013.8hPa SSW 4.0mph /  6.4km/h 8.0mph /  12.9km/h 78% 0.01in /  0.3mm
09:29 66.2 °F /  19 °C 59.1 °F /  15.1 °C 29.95in /  1014.1hPa SW 4.0mph /  6.4km/h 9.0mph /  14.5km/h 78% 0.01in /  0.3mm
09:34 66.6 °F /  19.2 °C 60.6 °F /  15.9 °C 29.95in /  1014.1hPa WNW 2.0mph /  3.2km/h 9.0mph /  14.5km/h 81% 0.01in /  0.3mm
09:39 67.0 °F /  19.4 °C 59.2 °F /  15.1 °C 29.95in /  1014.1hPa WNW 3.0mph /  4.8km/h 8.0mph /  12.9km/h 76% 0.01in /  0.3mm
09:44 66.7 °F /  19.3 °C 58.9 °F /  14.9 °C 29.95in /  1014.1hPa WSW 1.0mph /  1.6km/h 8.0mph /  12.9km/h 76% 0.01in /  0.3mm
09:49 66.9 °F /  19.4 °C 59.8 °F /  15.4 °C 29.95in /  1014.1hPa West 3.0mph /  4.8km/h 7.0mph /  11.3km/h 78% 0.01in /  0.3mm
09:54 67.7 °F /  19.8 °C 60.2 °F /  15.7 °C 29.95in /  1014.1hPa WNW 5.0mph /  8km/h 8.0mph /  12.9km/h 77% 0.01in /  0.3mm
09:59 67.7 °F /  19.8 °C 59.5 °F /  15.3 °C 29.96in /  1014.4hPa WNW 3.0mph /  4.8km/h 9.0mph /  14.5km/h 75% 0.01in /  0.3mm
10:04 67.7 °F /  19.8 °C 59.9 °F /  15.5 °C 29.96in /  1014.4hPa WSW 2.0mph /  3.2km/h 9.0mph /  14.5km/h 76% 0.01in /  0.3mm
10:09 67.7 °F /  19.8 °C 59.1 °F /  15.1 °C 29.96in /  1014.4hPa WNW 7.0mph /  11.3km/h 9.0mph /  14.5km/h 74% 0.01in /  0.3mm
10:14 67.0 °F /  19.4 °C 58.4 °F /  14.7 °C 29.96in /  1014.4hPa WNW 4.0mph /  6.4km/h 10.0mph /  16.1km/h 74% 0.01in /  0.3mm
10:19 67.5 °F /  19.7 °C 59.3 °F /  15.2 °C 29.96in /  1014.4hPa WNW 4.0mph /  6.4km/h 10.0mph /  16.1km/h 75% 0.01in /  0.3mm
10:24 67.8 °F /  19.9 °C 58.5 °F /  14.7 °C 29.97in /  1014.8hPa NW 5.0mph /  8km/h 11.0mph /  17.7km/h 72% 0.01in /  0.3mm
10:29 67.4 °F /  19.7 °C 58.8 °F /  14.9 °C 29.96in /  1014.4hPa WNW 3.0mph /  4.8km/h 11.0mph /  17.7km/h 74% 0.01in /  0.3mm
10:34 67.0 °F /  19.4 °C 58.4 °F /  14.7 °C 29.97in /  1014.8hPa WNW 4.0mph /  6.4km/h 9.0mph /  14.5km/h 74% 0.01in /  0.3mm
10:39 67.0 °F /  19.4 °C 58.4 °F /  14.7 °C 29.97in /  1014.8hPa WSW 3.0mph /  4.8km/h 9.0mph /  14.5km/h 74% 0.01in /  0.3mm
10:44 68.2 °F /  20.1 °C 60.0 °F /  15.6 °C 29.97in /  1014.8hPa WNW 2.0mph /  3.2km/h 7.0mph /  11.3km/h 75% 0.01in /  0.3mm
10:49 68.5 °F /  20.3 °C 57.1 °F /  13.9 °C 29.97in /  1014.8hPa NW 5.0mph /  8km/h 9.0mph /  14.5km/h 67% 0.01in /  0.3mm
10:54 68.0 °F /  20 °C 57.5 °F /  14.2 °C 29.97in /  1014.8hPa WNW 2.0mph /  3.2km/h 9.0mph /  14.5km/h 69% 0.01in /  0.3mm
10:59 67.8 °F /  19.9 °C 57.7 °F /  14.3 °C 29.97in /  1014.8hPa NW 5.0mph /  8km/h 9.0mph /  14.5km/h 70% 0.01in /  0.3mm
11:04 68.1 °F /  20.1 °C 57.6 °F /  14.2 °C 29.97in /  1014.8hPa West 4.0mph /  6.4km/h 9.0mph /  14.5km/h 69% 0.01in /  0.3mm
11:09 68.9 °F /  20.5 °C 59.9 °F /  15.5 °C 29.97in /  1014.8hPa Calm   9.0mph /  14.5km/h 73% 0.01in /  0.3mm
11:14 69.6 °F /  20.9 °C 57.8 °F /  14.3 °C 29.97in /  1014.8hPa WNW 2.0mph /  3.2km/h 9.0mph /  14.5km/h 66% 0.01in /  0.3mm
11:19 69.5 °F /  20.8 °C 58.5 °F /  14.7 °C 29.97in /  1014.8hPa NW 2.0mph /  3.2km/h 10.0mph /  16.1km/h 68% 0.01in /  0.3mm
11:24 69.7 °F /  20.9 °C 59.5 °F /  15.3 °C 29.97in /  1014.8hPa WNW 1.0mph /  1.6km/h 10.0mph /  16.1km/h 70% 0.01in /  0.3mm
11:29 70.0 °F /  21.1 °C 57.3 °F /  14.1 °C 29.97in /  1014.8hPa NW 4.0mph /  6.4km/h 8.0mph /  12.9km/h 64% 0.01in /  0.3mm
11:34 70.3 °F /  21.3 °C 57.1 °F /  13.9 °C 29.97in /  1014.8hPa NW 1.0mph /  1.6km/h 10.0mph /  16.1km/h 63% 0.01in /  0.3mm
11:39 70.7 °F /  21.5 °C 56.6 °F /  13.7 °C 29.97in /  1014.8hPa NW 3.0mph /  4.8km/h 10.0mph /  16.1km/h 61% 0.01in /  0.3mm
11:44 71.0 °F /  21.7 °C 57.8 °F /  14.3 °C 29.97in /  1014.8hPa WNW 3.0mph /  4.8km/h 9.0mph /  14.5km/h 63% 0.01in /  0.3mm
11:49 71.3 °F /  21.8 °C 57.6 °F /  14.2 °C 29.97in /  1014.8hPa WNW 1.0mph /  1.6km/h 6.0mph /  9.7km/h 62% 0.01in /  0.3mm
11:54 71.7 °F /  22.1 °C 57.5 °F /  14.2 °C 29.97in /  1014.8hPa NW 2.0mph /  3.2km/h 7.0mph /  11.3km/h 61% 0.01in /  0.3mm
11:59 71.7 °F /  22.1 °C 57.5 °F /  14.2 °C 29.97in /  1014.8hPa WNW 4.0mph /  6.4km/h 8.0mph /  12.9km/h 61% 0.01in /  0.3mm
12:04 71.6 °F /  22 °C 56.5 °F /  13.6 °C 29.97in /  1014.8hPa West 2.0mph /  3.2km/h 8.0mph /  12.9km/h 59% 0.01in /  0.3mm
12:09 72.1 °F /  22.3 °C 57.9 °F /  14.4 °C 29.97in /  1014.8hPa Calm   6.0mph /  9.7km/h 61% 0.01in /  0.3mm
12:14 73.0 °F /  22.8 °C 56.9 °F /  13.8 °C 29.98in /  1015.1hPa Calm   6.0mph /  9.7km/h 57% 0.01in /  0.3mm
12:19 73.4 °F /  23 °C 55.3 °F /  12.9 °C 29.97in /  1014.8hPa NW 3.0mph /  4.8km/h 10.0mph /  16.1km/h 53% 0.01in /  0.3mm
12:24 71.7 °F /  22.1 °C 53.2 °F /  11.8 °C 29.98in /  1015.1hPa Calm   10.0mph /  16.1km/h 52% 0.01in /  0.3mm
12:29 70.9 °F /  21.6 °C 53.4 °F /  11.9 °C 29.98in /  1015.1hPa Calm   8.0mph /  12.9km/h 54% 0.01in /  0.3mm
12:34 70.9 °F /  21.6 °C 52.4 °F /  11.3 °C 29.97in /  1014.8hPa WSW 3.0mph /  4.8km/h 8.0mph /  12.9km/h 52% 0.01in /  0.3mm
12:39 71.7 °F /  22.1 °C 53.2 °F /  11.8 °C 29.98in /  1015.1hPa NW 5.0mph /  8km/h 9.0mph /  14.5km/h 52% 0.01in /  0.3mm
12:44 72.8 °F /  22.7 °C 53.6 °F /  12 °C 29.97in /  1014.8hPa NW 3.0mph /  4.8km/h 9.0mph /  14.5km/h 51% 0.01in /  0.3mm
12:49 73.8 °F /  23.2 °C 55.1 °F /  12.8 °C 29.98in /  1015.1hPa WNW 4.0mph /  6.4km/h 9.0mph /  14.5km/h 52% 0.01in /  0.3mm
12:54 74.2 °F /  23.4 °C 53.3 °F /  11.8 °C 29.98in /  1015.1hPa NW 2.0mph /  3.2km/h 9.0mph /  14.5km/h 48% 0.01in /  0.3mm
12:59 73.0 °F /  22.8 °C 52.2 °F /  11.2 °C 29.98in /  1015.1hPa NW 2.0mph /  3.2km/h 9.0mph /  14.5km/h 48% 0.01in /  0.3mm
13:04 71.8 °F /  22.1 °C 54.3 °F /  12.4 °C 29.98in /  1015.1hPa WNW 1.0mph /  1.6km/h 6.0mph /  9.7km/h 54% 0.01in /  0.3mm
13:09 72.0 °F /  22.2 °C 51.8 °F /  11 °C 29.98in /  1015.1hPa West 4.0mph /  6.4km/h 7.0mph /  11.3km/h 49% 0.01in /  0.3mm
13:14 72.2 °F /  22.3 °C 51.4 °F /  10.8 °C 29.98in /  1015.1hPa West 2.0mph /  3.2km/h 9.0mph /  14.5km/h 48% 0.01in /  0.3mm
13:19 72.5 °F /  22.5 °C 51.7 °F /  10.9 °C 29.98in /  1015.1hPa NNW 1.0mph /  1.6km/h 9.0mph /  14.5km/h 48% 0.01in /  0.3mm
13:24 73.3 °F /  22.9 °C 53.0 °F /  11.7 °C 29.98in /  1015.1hPa WNW 3.0mph /  4.8km/h 9.0mph /  14.5km/h 49% 0.01in /  0.3mm
13:29 73.2 °F /  22.9 °C 52.9 °F /  11.6 °C 29.98in /  1015.1hPa NW 4.0mph /  6.4km/h 9.0mph /  14.5km/h 49% 0.01in /  0.3mm
13:34 73.2 °F /  22.9 °C 50.0 °F /  10 °C 29.98in /  1015.1hPa WNW 1.0mph /  1.6km/h 8.0mph /  12.9km/h 44% 0.01in /  0.3mm
13:39 73.2 °F /  22.9 °C 52.9 °F /  11.6 °C 29.98in /  1015.1hPa Calm   7.0mph /  11.3km/h 49% 0.01in /  0.3mm
13:44 73.7 °F /  23.2 °C 52.2 °F /  11.2 °C 29.98in /  1015.1hPa NW 2.0mph /  3.2km/h 7.0mph /  11.3km/h 47% 0.01in /  0.3mm
13:49 74.3 °F /  23.5 °C 54.5 °F /  12.5 °C 29.99in /  1015.5hPa NW 3.0mph /  4.8km/h 10.0mph /  16.1km/h 50% 0.01in /  0.3mm
13:54 74.6 °F /  23.7 °C 52.5 °F /  11.4 °C 29.98in /  1015.1hPa WNW 1.0mph /  1.6km/h 10.0mph /  16.1km/h 46% 0.01in /  0.3mm
13:59 74.5 °F /  23.6 °C 51.8 °F /  11 °C 29.99in /  1015.5hPa WNW 6.0mph /  9.7km/h 12.0mph /  19.3km/h 45% 0.01in /  0.3mm
14:04 74.1 °F /  23.4 °C 51.4 °F /  10.8 °C 29.99in /  1015.5hPa WNW 6.0mph /  9.7km/h 12.0mph /  19.3km/h 45% 0.01in /  0.3mm
14:09 74.1 °F /  23.4 °C 51.4 °F /  10.8 °C 29.98in /  1015.1hPa WNW 3.0mph /  4.8km/h 12.0mph /  19.3km/h 45% 0.01in /  0.3mm
14:14 74.6 °F /  23.7 °C 53.1 °F /  11.7 °C 29.98in /  1015.1hPa WSW 2.0mph /  3.2km/h 6.0mph /  9.7km/h 47% 0.01in /  0.3mm
14:19 74.8 °F /  23.8 °C 52.1 °F /  11.2 °C 29.98in /  1015.1hPa NW 5.0mph /  8km/h 9.0mph /  14.5km/h 45% 0.01in /  0.3mm
14:24 74.0 °F /  23.3 °C 51.9 °F /  11.1 °C 29.98in /  1015.1hPa NW 4.0mph /  6.4km/h 9.0mph /  14.5km/h 46% 0.01in /  0.3mm
14:29 74.0 °F /  23.3 °C 53.7 °F /  12.1 °C 29.98in /  1015.1hPa WNW 2.0mph /  3.2km/h 9.0mph /  14.5km/h 49% 0.01in /  0.3mm
14:34 74.2 °F /  23.4 °C 51.5 °F /  10.8 °C 29.98in /  1015.1hPa WNW 4.0mph /  6.4km/h 9.0mph /  14.5km/h 45% 0.01in /  0.3mm
14:39 74.5 °F /  23.6 °C 52.4 °F /  11.3 °C 29.98in /  1015.1hPa NW 3.0mph /  4.8km/h 10.0mph /  16.1km/h 46% 0.01in /  0.3mm
14:44 74.5 °F /  23.6 °C 51.2 °F /  10.7 °C 29.98in /  1015.1hPa WNW 3.0mph /  4.8km/h 11.0mph /  17.7km/h 44% 0.01in /  0.3mm
14:49 74.7 °F /  23.7 °C 52.6 °F /  11.4 °C 29.98in /  1015.1hPa WSW 3.0mph /  4.8km/h 11.0mph /  17.7km/h 46% 0.01in /  0.3mm
14:54 75.2 °F /  24 °C 54.2 °F /  12.3 °C 29.98in /  1015.1hPa West 5.0mph /  8km/h 13.0mph /  20.9km/h 48% 0.01in /  0.3mm
14:59 75.6 °F /  24.2 °C 52.2 °F /  11.2 °C 29.98in /  1015.1hPa WNW 2.0mph /  3.2km/h 13.0mph /  20.9km/h 44% 0.01in /  0.3mm
15:04 75.6 °F /  24.2 °C 54.6 °F /  12.6 °C 29.98in /  1015.1hPa ESE 1.0mph /  1.6km/h 9.0mph /  14.5km/h 48% 0.01in /  0.3mm
15:09 75.6 °F /  24.2 °C 54.0 °F /  12.2 °C 29.98in /  1015.1hPa NW 2.0mph /  3.2km/h 10.0mph /  16.1km/h 47% 0.01in /  0.3mm
15:14 75.5 °F /  24.2 °C 53.3 °F /  11.8 °C 29.98in /  1015.1hPa NW 5.0mph /  8km/h 12.0mph /  19.3km/h 46% 0.01in /  0.3mm
15:19 75.5 °F /  24.2 °C 50.8 °F /  10.4 °C 29.98in /  1015.1hPa WNW 5.0mph /  8km/h 12.0mph /  19.3km/h 42% 0.01in /  0.3mm
15:24 75.2 °F /  24 °C 49.9 °F /  9.9 °C 29.98in /  1015.1hPa Calm   10.0mph /  16.1km/h 41% 0.01in /  0.3mm
15:29 75.6 °F /  24.2 °C 52.2 °F /  11.2 °C 29.98in /  1015.1hPa West 4.0mph /  6.4km/h 8.0mph /  12.9km/h 44% 0.01in /  0.3mm
15:34 74.9 °F /  23.8 °C 50.3 °F /  10.2 °C 29.98in /  1015.1hPa West 3.0mph /  4.8km/h 8.0mph /  12.9km/h 42% 0.01in /  0.3mm
15:44 73.9 °F /  23.3 °C 52.4 °F /  11.3 °C 29.97in /  1014.8hPa West 2.0mph /  3.2km/h 5.0mph /  8km/h 47% 0.01in /  0.3mm
15:49 74.6 °F /  23.7 °C 51.3 °F /  10.7 °C 29.97in /  1014.8hPa WNW 1.0mph /  1.6km/h 6.0mph /  9.7km/h 44% 0.01in /  0.3mm
15:54 75.7 °F /  24.3 °C 52.3 °F /  11.3 °C 29.97in /  1014.8hPa WNW 3.0mph /  4.8km/h 6.0mph /  9.7km/h 44% 0.01in /  0.3mm
15:59 76.1 °F /  24.5 °C 50.7 °F /  10.4 °C 29.98in /  1015.1hPa WSW 3.0mph /  4.8km/h 8.0mph /  12.9km/h 41% 0.01in /  0.3mm
16:04 75.3 °F /  24.1 °C 50.7 °F /  10.4 °C 29.98in /  1015.1hPa WSW 4.0mph /  6.4km/h 8.0mph /  12.9km/h 42% 0.01in /  0.3mm
16:09 74.7 °F /  23.7 °C 51.4 °F /  10.8 °C 29.98in /  1015.1hPa WNW 2.0mph /  3.2km/h 8.0mph /  12.9km/h 44% 0.01in /  0.3mm
16:14 74.9 °F /  23.8 °C 50.3 °F /  10.2 °C 29.97in /  1014.8hPa WNW 3.0mph /  4.8km/h 8.0mph /  12.9km/h 42% 0.01in /  0.3mm
16:19 75.3 °F /  24.1 °C 53.1 °F /  11.7 °C 29.98in /  1015.1hPa NW 3.0mph /  4.8km/h 8.0mph /  12.9km/h 46% 0.01in /  0.3mm
16:24 75.5 °F /  24.2 °C 53.9 °F /  12.2 °C 29.97in /  1014.8hPa SSW 2.0mph /  3.2km/h 8.0mph /  12.9km/h 47% 0.01in /  0.3mm
16:29 75.8 °F /  24.3 °C 52.4 °F /  11.3 °C 29.97in /  1014.8hPa SW 2.0mph /  3.2km/h 4.0mph /  6.4km/h 44% 0.01in /  0.3mm
16:34 76.0 °F /  24.4 °C 53.2 °F /  11.8 °C 29.98in /  1015.1hPa NNE 2.0mph /  3.2km/h 5.0mph /  8km/h 45% 0.01in /  0.3mm
16:39 76.0 °F /  24.4 °C 50.0 °F /  10 °C 29.98in /  1015.1hPa NW 4.0mph /  6.4km/h 9.0mph /  14.5km/h 40% 0.01in /  0.3mm
16:44 76.0 °F /  24.4 °C 50.6 °F /  10.3 °C 29.98in /  1015.1hPa WNW 3.0mph /  4.8km/h 9.0mph /  14.5km/h 41% 0.01in /  0.3mm
16:49 75.6 °F /  24.2 °C 49.6 °F /  9.8 °C 29.98in /  1015.1hPa NW 4.0mph /  6.4km/h 11.0mph /  17.7km/h 40% 0.01in /  0.3mm
16:54 75.4 °F /  24.1 °C 50.1 °F /  10.1 °C 29.98in /  1015.1hPa SW 1.0mph /  1.6km/h 11.0mph /  17.7km/h 41% 0.01in /  0.3mm
16:59 75.5 °F /  24.2 °C 50.8 °F /  10.4 °C 29.97in /  1014.8hPa WSW 1.0mph /  1.6km/h 8.0mph /  12.9km/h 42% 0.01in /  0.3mm
17:04 75.6 °F /  24.2 °C 50.9 °F /  10.5 °C 29.97in /  1014.8hPa West 3.0mph /  4.8km/h 6.0mph /  9.7km/h 42% 0.01in /  0.3mm
17:09 75.6 °F /  24.2 °C 52.2 °F /  11.2 °C 29.97in /  1014.8hPa Calm   6.0mph /  9.7km/h 44% 0.01in /  0.3mm
17:14 75.9 °F /  24.4 °C 53.1 °F /  11.7 °C 29.97in /  1014.8hPa Calm   4.0mph /  6.4km/h 45% 0.01in /  0.3mm
17:19 76.6 °F /  24.8 °C 52.5 °F /  11.4 °C 29.97in /  1014.8hPa WNW 3.0mph /  4.8km/h 5.0mph /  8km/h 43% 0.01in /  0.3mm
17:24 76.3 °F /  24.6 °C 49.6 °F /  9.8 °C 29.97in /  1014.8hPa West 3.0mph /  4.8km/h 6.0mph /  9.7km/h 39% 0.01in /  0.3mm
17:29 75.9 °F /  24.4 °C 50.5 °F /  10.3 °C 29.97in /  1014.8hPa Calm   6.0mph /  9.7km/h 41% 0.01in /  0.3mm
17:34 75.8 °F /  24.3 °C 49.8 °F /  9.9 °C 29.97in /  1014.8hPa West 2.0mph /  3.2km/h 3.0mph /  4.8km/h 40% 0.01in /  0.3mm
17:39 75.1 °F /  23.9 °C 49.2 °F /  9.6 °C 29.97in /  1014.8hPa WSW 2.0mph /  3.2km/h 5.0mph /  8km/h 40% 0.01in /  0.3mm
17:44 74.8 °F /  23.8 °C 49.6 °F /  9.8 °C 29.97in /  1014.8hPa NW 3.0mph /  4.8km/h 5.0mph /  8km/h 41% 0.01in /  0.3mm
17:49 74.7 °F /  23.7 °C 50.1 °F /  10.1 °C 29.97in /  1014.8hPa NW 1.0mph /  1.6km/h 5.0mph /  8km/h 42% 0.01in /  0.3mm
17:54 74.9 °F /  23.8 °C 50.3 °F /  10.2 °C 29.97in /  1014.8hPa West 2.0mph /  3.2km/h 5.0mph /  8km/h 42% 0.01in /  0.3mm
17:59 75.1 °F /  23.9 °C 53.5 °F /  11.9 °C 29.97in /  1014.8hPa Calm   5.0mph /  8km/h 47% 0.01in /  0.3mm
18:04 75.3 °F /  24.1 °C 50.7 °F /  10.4 °C 29.97in /  1014.8hPa West 2.0mph /  3.2km/h 4.0mph /  6.4km/h 42% 0.01in /  0.3mm
18:09 75.0 °F /  23.9 °C 51.6 °F /  10.9 °C 29.97in /  1014.8hPa West 1.0mph /  1.6km/h 4.0mph /  6.4km/h 44% 0.01in /  0.3mm
18:14 75.0 °F /  23.9 °C 51.0 °F /  10.6 °C 29.97in /  1014.8hPa West 1.0mph /  1.6km/h 3.0mph /  4.8km/h 43% 0.01in /  0.3mm
18:19 74.9 °F /  23.8 °C 50.3 °F /  10.2 °C 29.97in /  1014.8hPa West 1.0mph /  1.6km/h 2.0mph /  3.2km/h 42% 0.01in /  0.3mm
18:24 74.6 °F /  23.7 °C 49.4 °F /  9.7 °C 29.97in /  1014.8hPa Calm   2.0mph /  3.2km/h 41% 0.01in /  0.3mm
18:29 74.3 °F /  23.5 °C 49.7 °F /  9.8 °C 29.97in /  1014.8hPa Calm   2.0mph /  3.2km/h 42% 0.01in /  0.3mm
18:34 74.0 °F /  23.3 °C 51.9 °F /  11.1 °C 29.97in /  1014.8hPa West 1.0mph /  1.6km/h 2.0mph /  3.2km/h 46% 0.01in /  0.3mm
18:39 73.7 °F /  23.2 °C 50.5 °F /  10.3 °C 29.98in /  1015.1hPa West 1.0mph /  1.6km/h 3.0mph /  4.8km/h 44% 0.01in /  0.3mm
18:44 73.5 °F /  23.1 °C 50.9 °F /  10.5 °C 29.97in /  1014.8hPa Calm   3.0mph /  4.8km/h 45% 0.01in /  0.3mm
18:49 73.7 °F /  23.2 °C 52.8 °F /  11.6 °C 29.98in /  1015.1hPa Calm   2.0mph /  3.2km/h 48% 0.01in /  0.3mm
18:54 73.5 °F /  23.1 °C 54.8 °F /  12.7 °C 29.98in /  1015.1hPa Calm   2.0mph /  3.2km/h 52% 0.01in /  0.3mm
18:59 73.0 °F /  22.8 °C 54.4 °F /  12.4 °C 29.98in /  1015.1hPa Calm   2.0mph /  3.2km/h 52% 0.01in /  0.3mm
19:04 71.3 °F /  21.8 °C 53.8 °F /  12.1 °C 29.98in /  1015.1hPa Calm     54% 0.01in /  0.3mm
19:09 69.3 °F /  20.7 °C 52.5 °F /  11.4 °C 29.98in /  1015.1hPa Calm     55% 0.01in /  0.3mm
19:14 67.1 °F /  19.5 °C 52.8 °F /  11.6 °C 29.99in /  1015.5hPa Calm     60% 0.01in /  0.3mm
19:19 65.4 °F /  18.6 °C 53.3 °F /  11.8 °C 29.99in /  1015.5hPa Calm     65% 0.01in /  0.3mm
19:24 64.1 °F /  17.8 °C 52.5 °F /  11.4 °C 29.99in /  1015.5hPa Calm     66% 0.01in /  0.3mm
19:29 63.2 °F /  17.3 °C 52.9 °F /  11.6 °C 29.99in /  1015.5hPa Calm     69% 0.01in /  0.3mm
19:34 62.2 °F /  16.8 °C 52.3 °F /  11.3 °C 29.99in /  1015.5hPa Calm     70% 0.01in /  0.3mm
19:39 61.2 °F /  16.2 °C 52.1 °F /  11.2 °C 29.99in /  1015.5hPa Calm     72% 0.01in /  0.3mm
19:44 60.4 °F /  15.8 °C 51.7 °F /  10.9 °C 29.99in /  1015.5hPa Calm     73% 0.01in /  0.3mm
19:49 59.7 °F /  15.4 °C 51.4 °F /  10.8 °C 29.98in /  1015.1hPa Calm     74% 0.01in /  0.3mm
19:54 59.0 °F /  15 °C 51.1 °F /  10.6 °C 29.98in /  1015.1hPa Calm     75% 0.01in /  0.3mm
19:59 58.9 °F /  14.9 °C 51.4 °F /  10.8 °C 29.99in /  1015.5hPa Calm     76% 0.01in /  0.3mm
20:04 58.5 °F /  14.7 °C 51.3 °F /  10.7 °C 29.99in /  1015.5hPa Calm     77% 0.01in /  0.3mm
20:09 58.2 °F /  14.6 °C 51.4 °F /  10.8 °C 29.99in /  1015.5hPa Calm     78% 0.01in /  0.3mm
20:14 57.8 °F /  14.3 °C 50.6 °F /  10.3 °C 29.99in /  1015.5hPa Calm     77% 0.01in /  0.3mm
20:24 57.3 °F /  14.1 °C 50.8 °F /  10.4 °C 30.00in /  1015.8hPa Calm     79% 0.01in /  0.3mm
20:29 56.9 °F /  13.8 °C 50.5 °F /  10.3 °C 30.00in /  1015.8hPa Calm     79% 0.01in /  0.3mm
20:34 56.7 °F /  13.7 °C 50.3 °F /  10.2 °C 30.00in /  1015.8hPa Calm     79% 0.01in /  0.3mm
20:39 56.6 °F /  13.7 °C 50.2 °F /  10.1 °C 30.00in /  1015.8hPa Calm     79% 0.01in /  0.3mm
20:44 56.4 °F /  13.6 °C 50.3 °F /  10.2 °C 30.01in /  1016.1hPa Calm     80% 0.01in /  0.3mm
20:49 56.3 °F /  13.5 °C 49.9 °F /  9.9 °C 30.01in /  1016.1hPa Calm     79% 0.01in /  0.3mm
20:54 56.3 °F /  13.5 °C 50.5 °F /  10.3 °C 30.01in /  1016.1hPa Calm     81% 0.01in /  0.3mm
20:59 56.4 °F /  13.6 °C 50.6 °F /  10.3 °C 30.01in /  1016.1hPa Calm     81% 0.01in /  0.3mm
21:04 56.5 °F /  13.6 °C 50.7 °F /  10.4 °C 30.01in /  1016.1hPa Calm     81% 0.01in /  0.3mm
21:09 56.7 °F /  13.7 °C 50.6 °F /  10.3 °C 30.01in /  1016.1hPa Calm     80% 0.01in /  0.3mm
21:14 56.9 °F /  13.8 °C 51.5 °F /  10.8 °C 30.01in /  1016.1hPa Calm     82% 0.01in /  0.3mm
21:19 57.0 °F /  13.9 °C 51.6 °F /  10.9 °C 30.02in /  1016.5hPa Calm     82% 0.01in /  0.3mm
21:24 56.9 °F /  13.8 °C 51.1 °F /  10.6 °C 30.02in /  1016.5hPa Calm     81% 0.01in /  0.3mm
21:29 56.6 °F /  13.7 °C 50.5 °F /  10.3 °C 30.02in /  1016.5hPa Calm     80% 0.01in /  0.3mm
21:34 56.4 °F /  13.6 °C 50.6 °F /  10.3 °C 30.02in /  1016.5hPa Calm     81% 0.01in /  0.3mm
21:39 56.2 °F /  13.4 °C 50.5 °F /  10.3 °C 30.02in /  1016.5hPa Calm     81% 0.01in /  0.3mm
21:44 56.0 °F /  13.3 °C 50.3 °F /  10.2 °C 30.02in /  1016.5hPa Calm     81% 0.01in /  0.3mm
21:49 55.7 °F /  13.2 °C 50.0 °F /  10 °C 30.02in /  1016.5hPa Calm     81% 0.01in /  0.3mm
21:54 55.5 °F /  13.1 °C 50.1 °F /  10.1 °C 30.02in /  1016.5hPa Calm     82% 0.01in /  0.3mm
21:59 55.3 °F /  12.9 °C 50.2 °F /  10.1 °C 30.02in /  1016.5hPa Calm     83% 0.01in /  0.3mm
22:04 55.1 °F /  12.8 °C 50.0 °F /  10 °C 30.02in /  1016.5hPa Calm     83% 0.01in /  0.3mm
22:09 54.9 °F /  12.7 °C 49.8 °F /  9.9 °C 30.02in /  1016.5hPa Calm     83% 0.01in /  0.3mm
22:14 54.7 °F /  12.6 °C 50.0 °F /  10 °C 30.02in /  1016.5hPa Calm     84% 0.01in /  0.3mm
22:19 54.6 °F /  12.6 °C 49.9 °F /  9.9 °C 30.02in /  1016.5hPa Calm     84% 0.01in /  0.3mm
22:24 54.3 °F /  12.4 °C 49.6 °F /  9.8 °C 30.02in /  1016.5hPa Calm     84% 0.01in /  0.3mm
22:29 54.1 °F /  12.3 °C 49.4 °F /  9.7 °C 30.02in /  1016.5hPa Calm     84% 0.01in /  0.3mm
22:34 53.9 °F /  12.2 °C 49.2 °F /  9.6 °C 30.03in /  1016.8hPa Calm     84% 0.01in /  0.3mm
22:44 53.5 °F /  11.9 °C 48.8 °F /  9.3 °C 30.03in /  1016.8hPa Calm     84% 0.01in /  0.3mm
22:49 53.3 °F /  11.8 °C 48.6 °F /  9.2 °C 30.03in /  1016.8hPa Calm     84% 0.01in /  0.3mm
22:54 53.2 °F /  11.8 °C 48.8 °F /  9.3 °C 30.03in /  1016.8hPa Calm     85% 0.01in /  0.3mm
22:59 53.1 °F /  11.7 °C 48.7 °F /  9.3 °C 30.03in /  1016.8hPa Calm     85% 0.01in /  0.3mm
23:04 53.0 °F /  11.7 °C 48.6 °F /  9.2 °C 30.03in /  1016.8hPa Calm     85% 0.01in /  0.3mm
23:09 52.9 °F /  11.6 °C 48.8 °F /  9.3 °C 30.03in /  1016.8hPa Calm     86% 0.01in /  0.3mm
23:14 52.8 °F /  11.6 °C 48.7 °F /  9.3 °C 30.03in /  1016.8hPa Calm     86% 0.01in /  0.3mm
23:24 52.6 °F /  11.4 °C 48.5 °F /  9.2 °C 30.03in /  1016.8hPa Calm     86% 0.01in /  0.3mm
23:29 52.6 °F /  11.4 °C 48.8 °F /  9.3 °C 30.03in /  1016.8hPa Calm     87% 0.01in /  0.3mm
23:34 52.7 °F /  11.5 °C 48.9 °F /  9.4 °C 30.03in /  1016.8hPa Calm     87% 0.01in /  0.3mm
23:39 52.6 °F /  11.4 °C 48.8 °F /  9.3 °C 30.03in /  1016.8hPa Calm     87% 0.01in /  0.3mm
23:44 52.6 °F /  11.4 °C 48.8 °F /  9.3 °C 30.03in /  1016.8hPa Calm     87% 0.01in /  0.3mm
23:49 52.6 °F /  11.4 °C 48.8 °F /  9.3 °C 30.03in /  1016.8hPa Calm     87% 0.01in /  0.3mm
23:54 52.6 °F /  11.4 °C 49.2 °F /  9.6 °C 30.03in /  1016.8hPa Calm     88% 0.01in /  0.3mm
23:59 52.5 °F /  11.4 °C 49.1 °F /  9.5 °C 30.03in /  1016.8hPa Calm     88% 0.01in /  0.3mm
Westford Weather
Compliments of Weather Underground

 
 
Current Radar Loop:

Copyright © WestfordWeather.net 2007-2014. All rights reserved.